sensor_id;sensor_type;location;lat;lon;timestamp;P1;durP1;ratioP1;P2;durP2;ratioP2
13255;SDS011;37913;48.370;10.930;2023-09-30T00:00:19;103.95;;;46.10;;
13255;SDS011;37913;48.370;10.930;2023-09-30T00:02:48;112.38;;;47.45;;
13255;SDS011;37913;48.370;10.930;2023-09-30T00:05:16;111.38;;;48.10;;
13255;SDS011;37913;48.370;10.930;2023-09-30T00:07:46;120.95;;;50.35;;
13255;SDS011;37913;48.370;10.930;2023-09-30T00:10:13;113.95;;;48.80;;
13255;SDS011;37913;48.370;10.930;2023-09-30T00:12:41;102.78;;;46.67;;
13255;SDS011;37913;48.370;10.930;2023-09-30T00:15:08;108.70;;;48.90;;
13255;SDS011;37913;48.370;10.930;2023-09-30T00:17:36;112.07;;;49.08;;
13255;SDS011;37913;48.370;10.930;2023-09-30T00:20:03;105.95;;;47.83;;
13255;SDS011;37913;48.370;10.930;2023-09-30T00:22:32;112.30;;;49.45;;
13255;SDS011;37913;48.370;10.930;2023-09-30T00:25:00;117.05;;;48.65;;
13255;SDS011;37913;48.370;10.930;2023-09-30T00:27:29;110.80;;;47.17;;
13255;SDS011;37913;48.370;10.930;2023-09-30T00:29:56;104.90;;;46.38;;
13255;SDS011;37913;48.370;10.930;2023-09-30T00:32:23;106.97;;;46.63;;
13255;SDS011;37913;48.370;10.930;2023-09-30T00:34:50;100.65;;;45.78;;
13255;SDS011;37913;48.370;10.930;2023-09-30T00:37:18;120.13;;;48.78;;
13255;SDS011;37913;48.370;10.930;2023-09-30T00:39:45;113.65;;;48.17;;
13255;SDS011;37913;48.370;10.930;2023-09-30T00:42:17;112.80;;;47.70;;
13255;SDS011;37913;48.370;10.930;2023-09-30T00:44:45;110.20;;;47.13;;
13255;SDS011;37913;48.370;10.930;2023-09-30T00:47:13;118.88;;;48.42;;
13255;SDS011;37913;48.370;10.930;2023-09-30T00:49:41;106.75;;;46.70;;
13255;SDS011;37913;48.370;10.930;2023-09-30T00:52:09;117.30;;;48.33;;
13255;SDS011;37913;48.370;10.930;2023-09-30T00:54:38;107.75;;;46.70;;
13255;SDS011;37913;48.370;10.930;2023-09-30T00:57:08;102.60;;;46.90;;
13255;SDS011;37913;48.370;10.930;2023-09-30T00:59:38;115.47;;;48.35;;
13255;SDS011;37913;48.370;10.930;2023-09-30T01:02:05;106.55;;;46.63;;
13255;SDS011;37913;48.370;10.930;2023-09-30T01:04:33;109.93;;;46.38;;
13255;SDS011;37913;48.370;10.930;2023-09-30T01:07:00;105.32;;;45.85;;
13255;SDS011;37913;48.370;10.930;2023-09-30T01:09:27;118.93;;;46.47;;
13255;SDS011;37913;48.370;10.930;2023-09-30T01:11:54;104.60;;;45.30;;
13255;SDS011;37913;48.370;10.930;2023-09-30T01:14:24;108.40;;;45.47;;
13255;SDS011;37913;48.370;10.930;2023-09-30T01:16:52;97.40;;;45.28;;
13255;SDS011;37913;48.370;10.930;2023-09-30T01:19:19;185.82;;;62.00;;
13255;SDS011;37913;48.370;10.930;2023-09-30T01:21:46;105.28;;;45.55;;
13255;SDS011;37913;48.370;10.930;2023-09-30T01:24:13;97.10;;;44.38;;
13255;SDS011;37913;48.370;10.930;2023-09-30T01:26:40;104.00;;;44.67;;
13255;SDS011;37913;48.370;10.930;2023-09-30T01:29:08;113.03;;;47.50;;
13255;SDS011;37913;48.370;10.930;2023-09-30T01:31:36;100.30;;;45.00;;
13255;SDS011;37913;48.370;10.930;2023-09-30T01:34:03;103.78;;;45.65;;
13255;SDS011;37913;48.370;10.930;2023-09-30T01:36:31;118.82;;;49.13;;
13255;SDS011;37913;48.370;10.930;2023-09-30T01:38:59;131.85;;;50.17;;
13255;SDS011;37913;48.370;10.930;2023-09-30T01:41:28;113.03;;;47.63;;
13255;SDS011;37913;48.370;10.930;2023-09-30T01:43:55;114.70;;;48.08;;
13255;SDS011;37913;48.370;10.930;2023-09-30T01:46:23;110.40;;;46.75;;
13255;SDS011;37913;48.370;10.930;2023-09-30T01:48:49;104.70;;;46.03;;
13255;SDS011;37913;48.370;10.930;2023-09-30T01:51:16;114.28;;;47.42;;
13255;SDS011;37913;48.370;10.930;2023-09-30T01:53:43;104.00;;;44.92;;
13255;SDS011;37913;48.370;10.930;2023-09-30T01:56:12;103.03;;;45.42;;
13255;SDS011;37913;48.370;10.930;2023-09-30T01:58:39;104.13;;;45.22;;
13255;SDS011;37913;48.370;10.930;2023-09-30T02:01:05;94.43;;;44.08;;
13255;SDS011;37913;48.370;10.930;2023-09-30T02:03:32;109.65;;;46.53;;
13255;SDS011;37913;48.370;10.930;2023-09-30T02:05:59;93.50;;;43.90;;
13255;SDS011;37913;48.370;10.930;2023-09-30T02:08:26;104.53;;;45.45;;
13255;SDS011;37913;48.370;10.930;2023-09-30T02:10:53;101.50;;;44.65;;
13255;SDS011;37913;48.370;10.930;2023-09-30T02:13:21;113.80;;;47.00;;
13255;SDS011;37913;48.370;10.930;2023-09-30T02:15:48;104.10;;;45.88;;
13255;SDS011;37913;48.370;10.930;2023-09-30T02:18:16;101.05;;;44.88;;
13255;SDS011;37913;48.370;10.930;2023-09-30T02:20:42;101.72;;;44.38;;
13255;SDS011;37913;48.370;10.930;2023-09-30T02:23:09;109.80;;;46.22;;
13255;SDS011;37913;48.370;10.930;2023-09-30T02:25:37;101.25;;;45.30;;
13255;SDS011;37913;48.370;10.930;2023-09-30T02:28:04;109.80;;;46.60;;
13255;SDS011;37913;48.370;10.930;2023-09-30T02:30:33;101.72;;;45.70;;
13255;SDS011;37913;48.370;10.930;2023-09-30T02:33:00;103.45;;;45.13;;
13255;SDS011;37913;48.370;10.930;2023-09-30T02:35:28;104.75;;;45.78;;
13255;SDS011;37913;48.370;10.930;2023-09-30T02:37:55;100.13;;;44.70;;
13255;SDS011;37913;48.370;10.930;2023-09-30T02:40:22;109.05;;;47.10;;
13255;SDS011;37913;48.370;10.930;2023-09-30T02:42:50;97.32;;;44.38;;
13255;SDS011;37913;48.370;10.930;2023-09-30T02:45:17;111.80;;;46.95;;
13255;SDS011;37913;48.370;10.930;2023-09-30T02:47:46;96.07;;;44.55;;
13255;SDS011;37913;48.370;10.930;2023-09-30T02:50:13;106.57;;;46.13;;
13255;SDS011;37913;48.370;10.930;2023-09-30T02:52:40;102.53;;;45.38;;
13255;SDS011;37913;48.370;10.930;2023-09-30T02:55:07;104.53;;;46.05;;
13255;SDS011;37913;48.370;10.930;2023-09-30T02:57:34;110.57;;;46.63;;
13255;SDS011;37913;48.370;10.930;2023-09-30T03:00:02;113.82;;;48.20;;
13255;SDS011;37913;48.370;10.930;2023-09-30T03:02:37;109.50;;;47.10;;
13255;SDS011;37913;48.370;10.930;2023-09-30T03:05:06;100.80;;;45.30;;
13255;SDS011;37913;48.370;10.930;2023-09-30T03:07:35;104.85;;;45.78;;
13255;SDS011;37913;48.370;10.930;2023-09-30T03:10:03;103.93;;;46.63;;
13255;SDS011;37913;48.370;10.930;2023-09-30T03:12:33;104.00;;;46.03;;
13255;SDS011;37913;48.370;10.930;2023-09-30T03:15:00;101.95;;;45.63;;
13255;SDS011;37913;48.370;10.930;2023-09-30T03:17:29;128.13;;;49.83;;
13255;SDS011;37913;48.370;10.930;2023-09-30T03:19:57;104.30;;;46.00;;
13255;SDS011;37913;48.370;10.930;2023-09-30T03:22:25;116.57;;;48.17;;
13255;SDS011;37913;48.370;10.930;2023-09-30T03:24:52;108.00;;;46.72;;
13255;SDS011;37913;48.370;10.930;2023-09-30T03:27:19;113.43;;;46.55;;
13255;SDS011;37913;48.370;10.930;2023-09-30T03:29:46;101.20;;;45.15;;
13255;SDS011;37913;48.370;10.930;2023-09-30T03:32:14;105.60;;;44.78;;
13255;SDS011;37913;48.370;10.930;2023-09-30T03:34:41;104.25;;;45.10;;
13255;SDS011;37913;48.370;10.930;2023-09-30T03:37:11;107.88;;;46.00;;
13255;SDS011;37913;48.370;10.930;2023-09-30T03:39:40;96.15;;;43.88;;
13255;SDS011;37913;48.370;10.930;2023-09-30T03:42:07;104.05;;;46.05;;
13255;SDS011;37913;48.370;10.930;2023-09-30T03:44:36;106.57;;;45.53;;
13255;SDS011;37913;48.370;10.930;2023-09-30T03:47:03;99.70;;;45.00;;
13255;SDS011;37913;48.370;10.930;2023-09-30T03:49:30;110.03;;;46.17;;
13255;SDS011;37913;48.370;10.930;2023-09-30T03:51:58;108.47;;;46.60;;
13255;SDS011;37913;48.370;10.930;2023-09-30T03:54:25;117.55;;;48.75;;
13255;SDS011;37913;48.370;10.930;2023-09-30T03:56:54;102.60;;;45.30;;
13255;SDS011;37913;48.370;10.930;2023-09-30T03:59:21;101.50;;;45.05;;
13255;SDS011;37913;48.370;10.930;2023-09-30T04:01:48;98.15;;;43.83;;
13255;SDS011;37913;48.370;10.930;2023-09-30T04:04:15;99.07;;;44.05;;
13255;SDS011;37913;48.370;10.930;2023-09-30T04:06:42;110.50;;;46.08;;
13255;SDS011;37913;48.370;10.930;2023-09-30T04:09:09;105.90;;;44.33;;
13255;SDS011;37913;48.370;10.930;2023-09-30T04:11:36;99.28;;;42.70;;
13255;SDS011;37913;48.370;10.930;2023-09-30T04:14:05;104.13;;;44.47;;
13255;SDS011;37913;48.370;10.930;2023-09-30T04:16:33;100.10;;;44.83;;
13255;SDS011;37913;48.370;10.930;2023-09-30T04:19:00;114.80;;;45.80;;
13255;SDS011;37913;48.370;10.930;2023-09-30T04:21:27;100.55;;;44.10;;
13255;SDS011;37913;48.370;10.930;2023-09-30T04:23:57;110.72;;;45.72;;
13255;SDS011;37913;48.370;10.930;2023-09-30T04:26:24;100.45;;;43.97;;
13255;SDS011;37913;48.370;10.930;2023-09-30T04:28:51;113.45;;;46.88;;
13255;SDS011;37913;48.370;10.930;2023-09-30T04:31:19;101.72;;;43.47;;
13255;SDS011;37913;48.370;10.930;2023-09-30T04:33:48;111.35;;;45.35;;
13255;SDS011;37913;48.370;10.930;2023-09-30T04:36:16;99.50;;;42.83;;
13255;SDS011;37913;48.370;10.930;2023-09-30T04:38:43;111.72;;;46.30;;
13255;SDS011;37913;48.370;10.930;2023-09-30T04:41:10;100.82;;;43.95;;
13255;SDS011;37913;48.370;10.930;2023-09-30T04:43:38;109.50;;;45.80;;
13255;SDS011;37913;48.370;10.930;2023-09-30T04:46:05;105.75;;;45.35;;
13255;SDS011;37913;48.370;10.930;2023-09-30T04:48:34;117.63;;;46.70;;
13255;SDS011;37913;48.370;10.930;2023-09-30T04:51:05;114.10;;;46.00;;
13255;SDS011;37913;48.370;10.930;2023-09-30T04:53:33;109.15;;;45.30;;
13255;SDS011;37913;48.370;10.930;2023-09-30T04:56:00;107.03;;;45.35;;
13255;SDS011;37913;48.370;10.930;2023-09-30T04:58:27;103.22;;;44.42;;
13255;SDS011;37913;48.370;10.930;2023-09-30T05:00:54;96.03;;;42.88;;
13255;SDS011;37913;48.370;10.930;2023-09-30T05:03:21;117.05;;;47.35;;
13255;SDS011;37913;48.370;10.930;2023-09-30T05:05:50;93.40;;;43.38;;
13255;SDS011;37913;48.370;10.930;2023-09-30T05:08:19;100.13;;;43.00;;
13255;SDS011;37913;48.370;10.930;2023-09-30T05:10:44;108.35;;;44.85;;
13255;SDS011;37913;48.370;10.930;2023-09-30T05:13:13;92.43;;;42.22;;
13255;SDS011;37913;48.370;10.930;2023-09-30T05:15:40;99.35;;;43.30;;
13255;SDS011;37913;48.370;10.930;2023-09-30T05:18:07;104.35;;;44.60;;
13255;SDS011;37913;48.370;10.930;2023-09-30T05:20:34;104.00;;;44.03;;
13255;SDS011;37913;48.370;10.930;2023-09-30T05:23:06;90.22;;;41.65;;
13255;SDS011;37913;48.370;10.930;2023-09-30T05:25:33;105.20;;;44.42;;
13255;SDS011;37913;48.370;10.930;2023-09-30T05:28:00;94.68;;;43.67;;
13255;SDS011;37913;48.370;10.930;2023-09-30T05:30:29;95.88;;;43.38;;
13255;SDS011;37913;48.370;10.930;2023-09-30T05:32:56;94.35;;;43.08;;
13255;SDS011;37913;48.370;10.930;2023-09-30T05:35:24;97.90;;;43.80;;
13255;SDS011;37913;48.370;10.930;2023-09-30T05:37:51;97.32;;;43.03;;
13255;SDS011;37913;48.370;10.930;2023-09-30T05:40:20;100.00;;;44.15;;
13255;SDS011;37913;48.370;10.930;2023-09-30T05:42:51;95.75;;;43.30;;
13255;SDS011;37913;48.370;10.930;2023-09-30T05:45:19;91.10;;;42.90;;
13255;SDS011;37913;48.370;10.930;2023-09-30T05:47:48;83.03;;;41.50;;
13255;SDS011;37913;48.370;10.930;2023-09-30T05:50:17;88.32;;;42.22;;
13255;SDS011;37913;48.370;10.930;2023-09-30T05:52:49;103.30;;;43.90;;
13255;SDS011;37913;48.370;10.930;2023-09-30T05:55:16;100.53;;;44.38;;
13255;SDS011;37913;48.370;10.930;2023-09-30T05:57:46;100.53;;;44.47;;
13255;SDS011;37913;48.370;10.930;2023-09-30T06:00:15;88.13;;;41.83;;
13255;SDS011;37913;48.370;10.930;2023-09-30T06:02:47;96.63;;;44.20;;
13255;SDS011;37913;48.370;10.930;2023-09-30T06:05:14;82.97;;;41.17;;
13255;SDS011;37913;48.370;10.930;2023-09-30T06:07:43;96.05;;;42.55;;
13255;SDS011;37913;48.370;10.930;2023-09-30T06:10:11;92.97;;;42.50;;
13255;SDS011;37913;48.370;10.930;2023-09-30T06:12:43;101.90;;;44.53;;
13255;SDS011;37913;48.370;10.930;2023-09-30T06:15:13;95.15;;;43.35;;
13255;SDS011;37913;48.370;10.930;2023-09-30T06:17:40;101.75;;;44.92;;
13255;SDS011;37913;48.370;10.930;2023-09-30T06:20:08;82.05;;;41.35;;
13255;SDS011;37913;48.370;10.930;2023-09-30T06:22:42;99.82;;;44.20;;
13255;SDS011;37913;48.370;10.930;2023-09-30T06:25:10;97.72;;;44.33;;
13255;SDS011;37913;48.370;10.930;2023-09-30T06:27:37;96.18;;;43.47;;
13255;SDS011;37913;48.370;10.930;2023-09-30T06:30:04;91.68;;;42.92;;
13255;SDS011;37913;48.370;10.930;2023-09-30T06:32:35;104.47;;;45.10;;
13255;SDS011;37913;48.370;10.930;2023-09-30T06:35:02;84.72;;;41.95;;
13255;SDS011;37913;48.370;10.930;2023-09-30T06:37:31;96.80;;;43.92;;
13255;SDS011;37913;48.370;10.930;2023-09-30T06:39:58;93.32;;;43.75;;
13255;SDS011;37913;48.370;10.930;2023-09-30T06:42:25;97.68;;;44.17;;
13255;SDS011;37913;48.370;10.930;2023-09-30T06:44:53;77.03;;;40.30;;
13255;SDS011;37913;48.370;10.930;2023-09-30T06:47:20;106.20;;;45.50;;
13255;SDS011;37913;48.370;10.930;2023-09-30T06:49:48;105.43;;;45.67;;
13255;SDS011;37913;48.370;10.930;2023-09-30T06:52:15;107.53;;;45.72;;
13255;SDS011;37913;48.370;10.930;2023-09-30T06:54:42;108.07;;;47.47;;
13255;SDS011;37913;48.370;10.930;2023-09-30T06:57:09;101.40;;;45.33;;
13255;SDS011;37913;48.370;10.930;2023-09-30T06:59:36;99.18;;;44.47;;
13255;SDS011;37913;48.370;10.930;2023-09-30T07:02:03;93.20;;;43.88;;
13255;SDS011;37913;48.370;10.930;2023-09-30T07:04:30;92.35;;;44.25;;
13255;SDS011;37913;48.370;10.930;2023-09-30T07:06:58;92.18;;;44.45;;
13255;SDS011;37913;48.370;10.930;2023-09-30T07:09:25;99.28;;;47.05;;
13255;SDS011;37913;48.370;10.930;2023-09-30T07:11:52;88.05;;;44.60;;
13255;SDS011;37913;48.370;10.930;2023-09-30T07:14:19;101.35;;;47.28;;
13255;SDS011;37913;48.370;10.930;2023-09-30T07:16:46;113.00;;;49.08;;
13255;SDS011;37913;48.370;10.930;2023-09-30T07:19:13;90.72;;;44.13;;
13255;SDS011;37913;48.370;10.930;2023-09-30T07:21:40;96.65;;;45.78;;
13255;SDS011;37913;48.370;10.930;2023-09-30T07:24:08;85.15;;;43.75;;
13255;SDS011;37913;48.370;10.930;2023-09-30T07:26:35;88.22;;;44.08;;
13255;SDS011;37913;48.370;10.930;2023-09-30T07:29:02;109.47;;;48.85;;
13255;SDS011;37913;48.370;10.930;2023-09-30T07:31:32;98.65;;;46.03;;
13255;SDS011;37913;48.370;10.930;2023-09-30T07:34:01;90.88;;;44.90;;
13255;SDS011;37913;48.370;10.930;2023-09-30T07:36:28;90.25;;;44.25;;
13255;SDS011;37913;48.370;10.930;2023-09-30T07:38:55;92.43;;;45.33;;
13255;SDS011;37913;48.370;10.930;2023-09-30T07:41:23;95.32;;;46.20;;
13255;SDS011;37913;48.370;10.930;2023-09-30T07:43:50;95.93;;;46.03;;
13255;SDS011;37913;48.370;10.930;2023-09-30T07:46:17;96.50;;;46.20;;
13255;SDS011;37913;48.370;10.930;2023-09-30T07:48:44;97.18;;;46.03;;
13255;SDS011;37913;48.370;10.930;2023-09-30T07:51:11;96.22;;;46.53;;
13255;SDS011;37913;48.370;10.930;2023-09-30T07:53:40;103.45;;;48.80;;
13255;SDS011;37913;48.370;10.930;2023-09-30T07:56:07;98.53;;;47.35;;
13255;SDS011;37913;48.370;10.930;2023-09-30T07:58:35;85.07;;;45.03;;
13255;SDS011;37913;48.370;10.930;2023-09-30T08:01:02;100.55;;;48.10;;
13255;SDS011;37913;48.370;10.930;2023-09-30T08:03:29;99.53;;;48.42;;
13255;SDS011;37913;48.370;10.930;2023-09-30T08:05:56;101.85;;;48.30;;
13255;SDS011;37913;48.370;10.930;2023-09-30T08:08:23;90.75;;;47.15;;
13255;SDS011;37913;48.370;10.930;2023-09-30T08:10:50;103.47;;;49.72;;
13255;SDS011;37913;48.370;10.930;2023-09-30T08:13:20;114.80;;;52.95;;
13255;SDS011;37913;48.370;10.930;2023-09-30T08:15:49;104.97;;;51.58;;
13255;SDS011;37913;48.370;10.930;2023-09-30T08:18:16;92.10;;;48.95;;
13255;SDS011;37913;48.370;10.930;2023-09-30T08:20:43;112.50;;;54.03;;
13255;SDS011;37913;48.370;10.930;2023-09-30T08:23:10;94.22;;;50.53;;
13255;SDS011;37913;48.370;10.930;2023-09-30T08:25:37;105.93;;;52.33;;
13255;SDS011;37913;48.370;10.930;2023-09-30T08:28:04;96.45;;;51.00;;
13255;SDS011;37913;48.370;10.930;2023-09-30T08:30:32;90.75;;;50.13;;
13255;SDS011;37913;48.370;10.930;2023-09-30T08:33:01;87.38;;;50.22;;
13255;SDS011;37913;48.370;10.930;2023-09-30T08:35:34;91.57;;;52.28;;
13255;SDS011;37913;48.370;10.930;2023-09-30T08:38:02;98.53;;;53.90;;
13255;SDS011;37913;48.370;10.930;2023-09-30T08:40:30;94.78;;;52.70;;
13255;SDS011;37913;48.370;10.930;2023-09-30T08:42:57;85.93;;;50.90;;
13255;SDS011;37913;48.370;10.930;2023-09-30T08:45:27;96.18;;;53.33;;
13255;SDS011;37913;48.370;10.930;2023-09-30T08:47:55;99.70;;;53.20;;
13255;SDS011;37913;48.370;10.930;2023-09-30T08:50:23;96.78;;;53.97;;
13255;SDS011;37913;48.370;10.930;2023-09-30T08:52:51;100.53;;;53.95;;
13255;SDS011;37913;48.370;10.930;2023-09-30T08:55:19;98.13;;;54.13;;
13255;SDS011;37913;48.370;10.930;2023-09-30T08:57:46;102.05;;;54.67;;
13255;SDS011;37913;48.370;10.930;2023-09-30T09:00:14;91.70;;;53.58;;
13255;SDS011;37913;48.370;10.930;2023-09-30T09:02:41;103.28;;;57.50;;
13255;SDS011;37913;48.370;10.930;2023-09-30T09:05:09;94.97;;;55.97;;
13255;SDS011;37913;48.370;10.930;2023-09-30T09:07:37;93.72;;;57.75;;
13255;SDS011;37913;48.370;10.930;2023-09-30T09:10:05;103.07;;;60.65;;
13255;SDS011;37913;48.370;10.930;2023-09-30T09:12:33;106.55;;;62.35;;
13255;SDS011;37913;48.370;10.930;2023-09-30T09:15:01;82.35;;;57.45;;
13255;SDS011;37913;48.370;10.930;2023-09-30T09:17:41;102.07;;;61.92;;
13255;SDS011;37913;48.370;10.930;2023-09-30T09:20:09;97.75;;;59.45;;
13255;SDS011;37913;48.370;10.930;2023-09-30T09:22:40;104.95;;;62.00;;
13255;SDS011;37913;48.370;10.930;2023-09-30T09:25:08;93.28;;;59.85;;
13255;SDS011;37913;48.370;10.930;2023-09-30T09:27:36;92.00;;;60.95;;
13255;SDS011;37913;48.370;10.930;2023-09-30T09:30:16;99.22;;;64.75;;
13255;SDS011;37913;48.370;10.930;2023-09-30T09:32:53;101.47;;;65.72;;
13255;SDS011;37913;48.370;10.930;2023-09-30T09:35:22;101.22;;;65.68;;
13255;SDS011;37913;48.370;10.930;2023-09-30T09:37:58;97.10;;;67.45;;
13255;SDS011;37913;48.370;10.930;2023-09-30T09:40:26;93.63;;;67.97;;
13255;SDS011;37913;48.370;10.930;2023-09-30T09:42:54;94.72;;;72.25;;
13255;SDS011;37913;48.370;10.930;2023-09-30T09:45:21;103.03;;;77.10;;
13255;SDS011;37913;48.370;10.930;2023-09-30T09:47:49;111.35;;;81.47;;
13255;SDS011;37913;48.370;10.930;2023-09-30T09:50:18;95.68;;;77.22;;
13255;SDS011;37913;48.370;10.930;2023-09-30T09:52:47;101.80;;;78.38;;
13255;SDS011;37913;48.370;10.930;2023-09-30T09:55:17;87.20;;;75.90;;
13255;SDS011;37913;48.370;10.930;2023-09-30T09:57:45;95.70;;;80.05;;
13255;SDS011;37913;48.370;10.930;2023-09-30T10:00:12;98.05;;;82.82;;
13255;SDS011;37913;48.370;10.930;2023-09-30T10:02:43;96.05;;;81.50;;
13255;SDS011;37913;48.370;10.930;2023-09-30T10:05:11;97.85;;;83.15;;
13255;SDS011;37913;48.370;10.930;2023-09-30T10:07:41;114.53;;;87.88;;
13255;SDS011;37913;48.370;10.930;2023-09-30T10:10:12;103.80;;;82.60;;
13255;SDS011;37913;48.370;10.930;2023-09-30T10:12:43;110.93;;;84.20;;
13255;SDS011;37913;48.370;10.930;2023-09-30T10:18:02;99.28;;;78.35;;
13255;SDS011;37913;48.370;10.930;2023-09-30T10:20:32;92.03;;;79.45;;
13255;SDS011;37913;48.370;10.930;2023-09-30T10:28:46;105.45;;;78.38;;
13255;SDS011;37913;48.370;10.930;2023-09-30T10:31:16;99.03;;;78.13;;
13255;SDS011;37913;48.370;10.930;2023-09-30T10:36:43;98.63;;;76.75;;
13255;SDS011;37913;48.370;10.930;2023-09-30T10:39:12;112.95;;;86.90;;
13255;SDS011;37913;48.370;10.930;2023-09-30T10:41:49;99.13;;;85.38;;
13255;SDS011;37913;48.370;10.930;2023-09-30T10:44:34;102.22;;;91.63;;
13255;SDS011;37913;48.370;10.930;2023-09-30T10:50:02;117.00;;;99.90;;
13255;SDS011;37913;48.370;10.930;2023-09-30T10:52:30;110.72;;;98.60;;
13255;SDS011;37913;48.370;10.930;2023-09-30T10:55:01;109.68;;;97.07;;
13255;SDS011;37913;48.370;10.930;2023-09-30T10:57:32;123.85;;;102.22;;
13255;SDS011;37913;48.370;10.930;2023-09-30T11:00:10;127.70;;;103.95;;
13255;SDS011;37913;48.370;10.930;2023-09-30T11:02:49;116.80;;;104.55;;
13255;SDS011;37913;48.370;10.930;2023-09-30T11:05:17;118.82;;;106.93;;
13255;SDS011;37913;48.370;10.930;2023-09-30T11:07:47;118.40;;;106.22;;
13255;SDS011;37913;48.370;10.930;2023-09-30T11:10:16;113.97;;;102.90;;
13255;SDS011;37913;48.370;10.930;2023-09-30T11:15:30;111.47;;;99.70;;
13255;SDS011;37913;48.370;10.930;2023-09-30T11:18:12;117.60;;;96.90;;
13255;SDS011;37913;48.370;10.930;2023-09-30T11:20:40;108.70;;;88.28;;
13255;SDS011;37913;48.370;10.930;2023-09-30T11:23:07;102.40;;;83.05;;
13255;SDS011;37913;48.370;10.930;2023-09-30T11:25:35;109.95;;;78.07;;
13255;SDS011;37913;48.370;10.930;2023-09-30T11:28:14;104.85;;;74.65;;
13255;SDS011;37913;48.370;10.930;2023-09-30T11:30:56;107.30;;;71.93;;
13255;SDS011;37913;48.370;10.930;2023-09-30T11:33:24;100.35;;;70.35;;
13255;SDS011;37913;48.370;10.930;2023-09-30T11:35:57;103.25;;;75.72;;
13255;SDS011;37913;48.370;10.930;2023-09-30T11:38:26;111.72;;;83.75;;
13255;SDS011;37913;48.370;10.930;2023-09-30T11:41:02;105.03;;;85.70;;
13255;SDS011;37913;48.370;10.930;2023-09-30T11:43:31;102.13;;;91.07;;
13255;SDS011;37913;48.370;10.930;2023-09-30T11:46:07;108.43;;;95.10;;
13255;SDS011;37913;48.370;10.930;2023-09-30T11:48:36;119.80;;;97.20;;
13255;SDS011;37913;48.370;10.930;2023-09-30T11:51:03;122.75;;;96.18;;
13255;SDS011;37913;48.370;10.930;2023-09-30T11:53:30;111.63;;;91.82;;
13255;SDS011;37913;48.370;10.930;2023-09-30T11:55:59;113.78;;;90.18;;
13255;SDS011;37913;48.370;10.930;2023-09-30T11:58:27;112.75;;;86.80;;
13255;SDS011;37913;48.370;10.930;2023-09-30T12:00:57;107.78;;;82.03;;
13255;SDS011;37913;48.370;10.930;2023-09-30T12:03:27;102.60;;;76.88;;
13255;SDS011;37913;48.370;10.930;2023-09-30T12:05:54;100.13;;;75.90;;
13255;SDS011;37913;48.370;10.930;2023-09-30T12:08:21;108.25;;;77.32;;
13255;SDS011;37913;48.370;10.930;2023-09-30T12:10:48;110.30;;;74.40;;
13255;SDS011;37913;48.370;10.930;2023-09-30T12:13:15;107.80;;;71.95;;
13255;SDS011;37913;48.370;10.930;2023-09-30T12:15:43;107.78;;;74.25;;
13255;SDS011;37913;48.370;10.930;2023-09-30T12:18:10;108.82;;;80.60;;
13255;SDS011;37913;48.370;10.930;2023-09-30T12:20:43;105.65;;;84.32;;
13255;SDS011;37913;48.370;10.930;2023-09-30T12:23:10;108.80;;;89.45;;
13255;SDS011;37913;48.370;10.930;2023-09-30T12:25:37;105.75;;;84.75;;
13255;SDS011;37913;48.370;10.930;2023-09-30T12:28:04;112.07;;;83.15;;
13255;SDS011;37913;48.370;10.930;2023-09-30T12:30:31;118.28;;;82.55;;
13255;SDS011;37913;48.370;10.930;2023-09-30T12:32:58;111.50;;;80.47;;
13255;SDS011;37913;48.370;10.930;2023-09-30T12:35:25;118.35;;;80.63;;
13255;SDS011;37913;48.370;10.930;2023-09-30T12:37:54;103.25;;;75.07;;
13255;SDS011;37913;48.370;10.930;2023-09-30T12:40:21;116.47;;;76.20;;
13255;SDS011;37913;48.370;10.930;2023-09-30T12:42:49;109.10;;;73.40;;
13255;SDS011;37913;48.370;10.930;2023-09-30T12:45:16;102.75;;;71.75;;
13255;SDS011;37913;48.370;10.930;2023-09-30T12:47:43;101.68;;;69.18;;
13255;SDS011;37913;48.370;10.930;2023-09-30T12:50:12;110.63;;;68.47;;
13255;SDS011;37913;48.370;10.930;2023-09-30T12:52:39;100.97;;;65.78;;
13255;SDS011;37913;48.370;10.930;2023-09-30T12:55:07;105.90;;;64.07;;
13255;SDS011;37913;48.370;10.930;2023-09-30T12:57:35;96.97;;;60.95;;
13255;SDS011;37913;48.370;10.930;2023-09-30T13:00:02;101.97;;;61.35;;
13255;SDS011;37913;48.370;10.930;2023-09-30T13:02:30;107.38;;;60.72;;
13255;SDS011;37913;48.370;10.930;2023-09-30T13:04:56;103.50;;;59.08;;
13255;SDS011;37913;48.370;10.930;2023-09-30T13:07:23;108.15;;;60.25;;
13255;SDS011;37913;48.370;10.930;2023-09-30T13:09:51;91.25;;;56.00;;
13255;SDS011;37913;48.370;10.930;2023-09-30T13:12:19;100.20;;;57.20;;
13255;SDS011;37913;48.370;10.930;2023-09-30T13:14:46;93.93;;;55.67;;
13255;SDS011;37913;48.370;10.930;2023-09-30T13:17:12;107.75;;;60.65;;
13255;SDS011;37913;48.370;10.930;2023-09-30T13:19:40;94.40;;;57.40;;
13255;SDS011;37913;48.370;10.930;2023-09-30T13:22:07;99.80;;;60.75;;
13255;SDS011;37913;48.370;10.930;2023-09-30T13:24:34;92.28;;;60.13;;
13255;SDS011;37913;48.370;10.930;2023-09-30T13:27:04;101.85;;;63.78;;
13255;SDS011;37913;48.370;10.930;2023-09-30T13:29:33;90.25;;;61.17;;
13255;SDS011;37913;48.370;10.930;2023-09-30T13:32:00;104.90;;;65.40;;
13255;SDS011;37913;48.370;10.930;2023-09-30T13:34:29;100.20;;;60.67;;
13255;SDS011;37913;48.370;10.930;2023-09-30T13:36:56;98.35;;;61.30;;
13255;SDS011;37913;48.370;10.930;2023-09-30T13:39:23;100.22;;;61.10;;
13255;SDS011;37913;48.370;10.930;2023-09-30T13:41:50;102.55;;;64.75;;
13255;SDS011;37913;48.370;10.930;2023-09-30T13:44:17;103.97;;;67.78;;
13255;SDS011;37913;48.370;10.930;2023-09-30T13:46:46;109.53;;;69.35;;
13255;SDS011;37913;48.370;10.930;2023-09-30T13:49:14;117.40;;;72.72;;
13255;SDS011;37913;48.370;10.930;2023-09-30T13:51:41;97.57;;;67.07;;
13255;SDS011;37913;48.370;10.930;2023-09-30T13:54:08;101.43;;;69.35;;
13255;SDS011;37913;48.370;10.930;2023-09-30T13:56:35;109.65;;;73.13;;
13255;SDS011;37913;48.370;10.930;2023-09-30T13:59:02;110.10;;;71.22;;
13255;SDS011;37913;48.370;10.930;2023-09-30T14:01:28;106.45;;;71.03;;
13255;SDS011;37913;48.370;10.930;2023-09-30T14:03:57;115.32;;;74.18;;
13255;SDS011;37913;48.370;10.930;2023-09-30T14:06:24;104.75;;;69.57;;
13255;SDS011;37913;48.370;10.930;2023-09-30T14:08:51;112.38;;;72.25;;
13255;SDS011;37913;48.370;10.930;2023-09-30T14:11:18;112.88;;;73.50;;
13255;SDS011;37913;48.370;10.930;2023-09-30T14:13:45;99.90;;;68.78;;
13255;SDS011;37913;48.370;10.930;2023-09-30T14:16:12;112.05;;;71.60;;
13255;SDS011;37913;48.370;10.930;2023-09-30T14:18:39;98.80;;;66.38;;
13255;SDS011;37913;48.370;10.930;2023-09-30T14:21:07;102.10;;;66.95;;
13255;SDS011;37913;48.370;10.930;2023-09-30T14:23:34;101.07;;;67.63;;